createdAt,value
2018-12-18T00:01:18.921Z,1.52
2018-12-18T00:03:48.720Z,1.60
2018-12-18T00:06:18.510Z,1.59
2018-12-18T00:08:48.685Z,1.54
2018-12-18T00:11:18.442Z,1.53
2018-12-18T00:13:48.501Z,1.55
2018-12-18T00:16:18.102Z,1.51
2018-12-18T00:18:47.974Z,1.48
2018-12-18T00:21:18.094Z,1.54
2018-12-18T00:23:48.151Z,1.53
2018-12-18T00:26:17.912Z,1.55
2018-12-18T00:28:47.971Z,1.55
2018-12-18T00:31:17.833Z,1.64
2018-12-18T00:33:47.566Z,1.60
2018-12-18T00:36:17.182Z,1.55
2018-12-18T00:38:47.429Z,1.42
2018-12-18T00:41:17.103Z,1.57
2018-12-18T00:43:46.994Z,1.55
2018-12-18T00:46:16.780Z,1.58
2018-12-18T00:48:46.430Z,1.61
2018-12-18T00:51:16.196Z,1.73
2018-12-18T00:53:45.891Z,1.67
2018-12-18T00:56:15.803Z,1.51
2018-12-18T00:58:45.366Z,1.47
2018-12-18T01:01:15.405Z,1.51
2018-12-18T01:03:45.179Z,1.52
2018-12-18T01:06:14.904Z,1.48
2018-12-18T01:08:44.614Z,1.48
2018-12-18T01:11:15.786Z,1.85
2018-12-18T01:13:45.881Z,1.82
2018-12-18T01:16:15.621Z,1.81
2018-12-18T01:18:45.400Z,1.94
2018-12-18T01:21:15.043Z,1.90
2018-12-18T01:23:44.869Z,1.79
2018-12-18T01:26:14.512Z,1.80
2018-12-18T01:28:46.410Z,1.83
2018-12-18T01:31:16.282Z,1.83
2018-12-18T01:33:46.151Z,1.82
2018-12-18T01:36:15.810Z,1.81
2018-12-18T01:38:45.587Z,1.77
2018-12-18T01:41:15.346Z,1.81
2018-12-18T01:43:45.155Z,1.78
2018-12-18T01:46:14.797Z,1.75
2018-12-18T01:48:44.516Z,1.66
2018-12-18T01:51:14.378Z,1.67
2018-12-18T01:53:44.271Z,1.61
2018-12-18T01:56:14.169Z,1.57
2018-12-18T01:58:44.052Z,1.59
2018-12-18T02:01:13.776Z,1.68
2018-12-18T02:03:43.799Z,1.67
2018-12-18T02:06:13.545Z,1.79
2018-12-18T02:08:43.346Z,1.77
2018-12-18T02:11:13.290Z,1.59
2018-12-18T02:13:43.367Z,1.80
2018-12-18T02:16:13.412Z,1.83
2018-12-18T02:18:43.172Z,1.84
2018-12-18T02:21:13.600Z,1.85
2018-12-18T02:23:43.805Z,1.89
2018-12-18T02:26:13.550Z,1.86
2018-12-18T02:28:43.623Z,1.87
2018-12-18T02:31:13.350Z,1.86
2018-12-18T02:33:43.425Z,1.87
2018-12-18T02:36:13.283Z,1.85
2018-12-18T02:38:42.863Z,1.85
2018-12-18T02:41:12.903Z,1.84
2018-12-18T02:43:42.466Z,1.88
2018-12-18T02:46:12.311Z,1.85
2018-12-18T02:48:42.090Z,1.85
2018-12-18T02:51:11.870Z,1.87
2018-12-18T02:53:41.800Z,1.91
2018-12-18T02:56:11.762Z,1.88
2018-12-18T02:58:41.781Z,1.83
2018-12-18T03:01:11.496Z,1.84
2018-12-18T03:03:41.070Z,1.79
2018-12-18T03:06:11.110Z,1.75
2018-12-18T03:08:40.776Z,1.80
2018-12-18T03:11:14.667Z,1.76
2018-12-18T03:13:44.494Z,1.72
2018-12-18T03:16:14.324Z,1.71
2018-12-18T03:18:44.270Z,1.65
2018-12-18T03:21:14.048Z,1.57
2018-12-18T03:23:43.789Z,1.59
2018-12-18T03:26:13.795Z,1.61
2018-12-18T03:28:43.609Z,1.58
2018-12-18T03:31:13.346Z,1.61
2018-12-18T03:33:43.095Z,1.68
2018-12-18T03:36:12.921Z,1.66
2018-12-18T03:38:42.515Z,1.68
2018-12-18T03:41:12.261Z,1.65
2018-12-18T03:43:42.345Z,1.62
2018-12-18T03:46:13.865Z,1.67
2018-12-18T03:48:43.505Z,1.64
2018-12-18T03:51:13.039Z,1.68
2018-12-18T03:53:42.570Z,1.59
2018-12-18T03:56:12.135Z,1.57
2018-12-18T03:58:41.782Z,1.58
2018-12-18T04:01:11.520Z,1.52
2018-12-18T04:03:41.372Z,1.51
2018-12-18T04:06:11.221Z,1.57
2018-12-18T04:08:40.990Z,1.55
2018-12-18T04:11:10.821Z,1.55
2018-12-18T04:13:40.638Z,1.55
2018-12-18T04:16:10.527Z,1.54
2018-12-18T04:18:40.866Z,1.54
2018-12-18T04:21:10.658Z,1.51
2018-12-18T04:23:40.342Z,1.55
2018-12-18T04:26:09.940Z,1.65
2018-12-18T04:28:39.674Z,1.63
2018-12-18T04:31:09.437Z,1.61
2018-12-18T04:33:39.294Z,1.63
2018-12-18T04:36:08.842Z,1.56
2018-12-18T04:38:38.588Z,1.52
2018-12-18T04:41:08.461Z,1.50
2018-12-18T04:43:39.463Z,1.43
2018-12-18T04:46:09.667Z,1.36
2018-12-18T04:48:39.270Z,1.37
2018-12-18T04:51:09.114Z,1.34
2018-12-18T04:53:38.996Z,1.32
2018-12-18T04:56:08.749Z,1.37
2018-12-18T04:58:38.549Z,1.42
2018-12-18T05:01:08.594Z,1.29
2018-12-18T05:03:38.342Z,1.25
2018-12-18T05:06:08.306Z,1.27
2018-12-18T05:08:37.864Z,1.28
2018-12-18T05:11:09.630Z,1.30
2018-12-18T05:13:39.470Z,1.33
2018-12-18T05:16:09.343Z,1.34
2018-12-18T05:18:39.110Z,1.35
2018-12-18T05:21:09.341Z,1.34
2018-12-18T05:23:39.055Z,1.34
2018-12-18T05:26:08.787Z,1.31
2018-12-18T05:28:38.862Z,1.34
2018-12-18T05:31:08.574Z,1.30
2018-12-18T05:33:38.338Z,1.35
2018-12-18T05:36:08.026Z,1.33
2018-12-18T05:38:37.819Z,1.34
2018-12-18T05:41:07.791Z,1.37
2018-12-18T05:43:37.640Z,1.41
2018-12-18T05:46:07.297Z,1.30
2018-12-18T05:48:37.055Z,1.41
2018-12-18T05:51:07.135Z,1.39
2018-12-18T05:53:36.807Z,1.40
2018-12-18T05:56:07.273Z,1.36
2018-12-18T05:58:36.965Z,1.47
2018-12-18T06:01:07.116Z,1.69
2018-12-18T06:03:37.246Z,1.75
2018-12-18T06:06:07.040Z,1.89
2018-12-18T06:08:36.735Z,1.88
2018-12-18T06:11:06.473Z,1.78
2018-12-18T06:13:36.367Z,1.92
2018-12-18T06:16:06.109Z,1.94
2018-12-18T06:18:36.180Z,1.77
2018-12-18T06:21:06.254Z,2.01
2018-12-18T06:23:36.377Z,1.80
2018-12-18T06:26:06.157Z,1.77
2018-12-18T06:28:35.878Z,1.59
2018-12-18T06:31:05.957Z,1.44
2018-12-18T06:33:35.802Z,1.41
2018-12-18T06:36:06.094Z,1.40
2018-12-18T06:38:36.213Z,1.65
2018-12-18T06:41:06.160Z,1.64
2018-12-18T06:43:36.086Z,1.53
2018-12-18T06:46:05.968Z,1.39
2018-12-18T06:48:35.811Z,1.29
2018-12-18T06:51:05.800Z,1.29
2018-12-18T06:53:35.438Z,1.23
2018-12-18T06:56:05.667Z,1.21
2018-12-18T06:58:35.268Z,1.25
2018-12-18T07:01:05.007Z,1.22
2018-12-18T07:03:34.850Z,1.22
2018-12-18T07:06:04.851Z,1.19
2018-12-18T07:08:34.600Z,1.22
2018-12-18T07:11:04.832Z,1.25
2018-12-18T07:13:34.645Z,1.33
2018-12-18T07:16:04.699Z,1.31
2018-12-18T07:18:34.365Z,1.33
2018-12-18T07:21:04.135Z,1.39
2018-12-18T07:23:34.005Z,1.48
2018-12-18T07:26:04.192Z,1.53
2018-12-18T07:28:34.084Z,1.51
2018-12-18T07:31:03.918Z,1.57
2018-12-18T07:33:33.525Z,1.61
2018-12-18T07:36:03.328Z,1.56
2018-12-18T07:38:33.201Z,1.57
2018-12-18T07:41:03.880Z,1.66
2018-12-18T07:43:33.428Z,1.70
2018-12-18T07:46:03.536Z,1.71
2018-12-18T07:48:33.094Z,1.79
2018-12-18T07:51:02.861Z,1.85
2018-12-18T07:53:32.607Z,1.89
2018-12-18T07:56:02.535Z,1.86
2018-12-18T07:58:32.201Z,1.89
2018-12-18T08:01:02.876Z,2.03
2018-12-18T08:03:32.490Z,1.97
2018-12-18T08:06:02.507Z,1.99
2018-12-18T08:08:32.169Z,1.90
2018-12-18T08:11:01.914Z,2.02
2018-12-18T08:13:31.838Z,1.90
2018-12-18T08:16:01.691Z,1.96
2018-12-18T08:18:31.471Z,2.00
2018-12-18T08:21:01.259Z,2.02
2018-12-18T08:23:31.007Z,2.19
2018-12-18T08:26:00.912Z,2.29
2018-12-18T08:28:30.788Z,2.17
2018-12-18T08:31:01.352Z,2.18
2018-12-18T08:33:31.126Z,2.05
2018-12-18T08:36:00.977Z,2.08
2018-12-18T08:38:30.699Z,2.17
2018-12-18T08:41:00.357Z,2.15
2018-12-18T08:43:30.298Z,2.19
2018-12-18T08:46:00.222Z,2.33
2018-12-18T08:48:38.509Z,2.34
2018-12-18T08:51:08.352Z,2.46
2018-12-18T08:53:37.904Z,2.31
2018-12-18T08:56:07.850Z,2.24
2018-12-18T08:58:37.535Z,2.13
2018-12-18T09:01:07.392Z,2.12
2018-12-18T09:03:37.575Z,2.18
2018-12-18T09:06:07.255Z,2.00
2018-12-18T09:08:37.008Z,1.98
2018-12-18T09:11:06.730Z,1.95
2018-12-18T09:13:36.422Z,2.10
2018-12-18T09:16:10.236Z,2.02
2018-12-18T09:18:39.847Z,1.96
2018-12-18T09:21:09.710Z,1.82
2018-12-18T09:23:39.564Z,1.86
2018-12-18T09:26:09.433Z,1.96
2018-12-18T09:28:39.405Z,1.98
2018-12-18T09:31:09.388Z,2.06
2018-12-18T09:33:39.338Z,2.21
2018-12-18T09:36:09.030Z,2.11
2018-12-18T09:38:44.021Z,2.08
2018-12-18T09:41:19.058Z,2.11
2018-12-18T09:44:23.273Z,2.22
2018-12-18T09:46:53.223Z,2.25
2018-12-18T09:49:23.060Z,2.28
2018-12-18T09:51:52.787Z,2.35
2018-12-18T09:54:22.363Z,2.40
2018-12-18T09:56:52.467Z,2.51
2018-12-18T09:59:22.115Z,2.49
2018-12-18T10:01:51.879Z,2.47
2018-12-18T10:04:21.886Z,2.44
2018-12-18T10:06:51.721Z,2.63
2018-12-18T10:09:21.546Z,2.66
2018-12-18T10:11:51.184Z,2.79
2018-12-18T10:14:20.934Z,2.81
2018-12-18T10:16:50.639Z,2.83
2018-12-18T10:19:20.646Z,2.87
2018-12-18T10:21:50.233Z,2.88
2018-12-18T10:24:19.879Z,2.76
2018-12-18T10:26:49.611Z,2.85
2018-12-18T10:29:20.245Z,2.99
2018-12-18T10:31:50.258Z,2.78
2018-12-18T10:34:19.857Z,2.79
2018-12-18T10:36:49.453Z,2.76
2018-12-18T10:39:19.335Z,2.83
2018-12-18T10:41:49.393Z,2.72
2018-12-18T10:44:18.969Z,2.67
2018-12-18T10:46:49.132Z,2.58
2018-12-18T10:49:18.952Z,2.66
2018-12-18T10:51:48.597Z,2.84
2018-12-18T10:54:18.466Z,2.74
2018-12-18T10:56:48.022Z,2.76
2018-12-18T10:59:18.182Z,2.75
2018-12-18T11:01:48.967Z,2.83
2018-12-18T11:04:19.106Z,2.68
2018-12-18T11:06:49.056Z,2.76
2018-12-18T11:09:19.432Z,2.72
2018-12-18T11:11:48.984Z,2.68
2018-12-18T11:14:18.654Z,2.74
2018-12-18T11:16:48.404Z,2.84
2018-12-18T11:19:18.464Z,3.08
2018-12-18T11:21:48.139Z,3.09
2018-12-18T11:24:17.848Z,3.08
2018-12-18T11:26:47.904Z,3.11
2018-12-18T11:29:17.734Z,3.26
2018-12-18T11:31:48.220Z,3.40
2018-12-18T11:34:18.879Z,3.34
2018-12-18T11:36:48.713Z,2.97
2018-12-18T11:39:18.518Z,3.36
2018-12-18T11:41:48.182Z,3.55
2018-12-18T11:44:18.275Z,3.70
2018-12-18T11:46:48.068Z,3.63
2018-12-18T11:49:17.858Z,3.76
2018-12-18T11:51:48.407Z,3.89
2018-12-18T11:54:18.185Z,3.90
2018-12-18T11:56:48.497Z,3.72
2018-12-18T11:59:18.153Z,3.76
2018-12-18T12:01:47.855Z,3.74
2018-12-18T12:04:17.399Z,3.73
2018-12-18T12:06:46.938Z,3.70
2018-12-18T12:09:16.695Z,3.61
2018-12-18T12:11:46.545Z,3.79
2018-12-18T12:14:16.201Z,3.77
2018-12-18T12:16:45.785Z,3.90
2018-12-18T12:19:15.466Z,3.87
2018-12-18T12:21:45.539Z,3.85
2018-12-18T12:24:15.262Z,3.87
2018-12-18T12:26:49.141Z,4.03
2018-12-18T12:29:18.955Z,4.16
2018-12-18T12:31:48.635Z,3.77
2018-12-18T12:34:18.359Z,3.91
2018-12-18T12:36:48.302Z,3.85
2018-12-18T12:39:18.123Z,3.76
2018-12-18T12:41:47.873Z,3.72
2018-12-18T12:44:18.008Z,3.74
2018-12-18T12:46:47.770Z,3.93
2018-12-18T12:49:18.127Z,4.17
2018-12-18T12:51:48.708Z,4.07
2018-12-18T12:54:18.544Z,4.06
2018-12-18T12:56:49.153Z,3.88
2018-12-18T12:59:18.838Z,3.77
2018-12-18T13:01:48.507Z,3.59
2018-12-18T13:04:18.029Z,3.77
2018-12-18T13:06:47.761Z,3.97
2018-12-18T13:09:18.258Z,3.88
2018-12-18T13:11:47.956Z,3.92
2018-12-18T13:14:17.902Z,3.60
2018-12-18T13:16:47.656Z,3.62
2018-12-18T13:19:17.577Z,3.67
2018-12-18T13:21:47.356Z,3.39
2018-12-18T13:24:16.975Z,3.58
2018-12-18T13:26:46.851Z,3.59
2018-12-18T13:29:16.602Z,3.61
2018-12-18T13:31:46.513Z,3.65
2018-12-18T13:34:16.264Z,3.40
2018-12-18T13:36:45.947Z,3.36
2018-12-18T13:39:15.697Z,3.32
2018-12-18T13:41:45.418Z,3.47
2018-12-18T13:44:15.034Z,3.34
2018-12-18T13:46:44.688Z,3.23
2018-12-18T13:49:14.342Z,3.23
2018-12-18T13:51:44.147Z,3.08
2018-12-18T13:54:13.893Z,3.09
2018-12-18T13:56:43.558Z,3.11
2018-12-18T13:59:13.444Z,3.09
2018-12-18T14:01:43.123Z,3.06
2018-12-18T14:04:12.805Z,2.95
2018-12-18T14:06:42.658Z,2.89
2018-12-18T14:09:12.479Z,2.84
2018-12-18T14:11:42.194Z,2.74
2018-12-18T14:14:11.969Z,2.61
2018-12-18T14:16:42.001Z,2.59
2018-12-18T14:19:11.766Z,2.54
2018-12-18T14:21:41.762Z,2.51
2018-12-18T14:24:11.628Z,2.48
2018-12-18T14:26:41.384Z,2.42
2018-12-18T14:29:11.241Z,2.41
2018-12-18T14:31:41.172Z,2.38
2018-12-18T14:34:10.941Z,2.36
2018-12-18T14:36:40.811Z,2.29
2018-12-18T14:39:10.646Z,2.27
2018-12-18T14:41:40.413Z,2.21
2018-12-18T14:44:10.378Z,2.21
2018-12-18T14:46:39.982Z,2.16
2018-12-18T14:49:09.549Z,2.13
2018-12-18T14:51:39.319Z,2.07
2018-12-18T14:54:09.549Z,2.03
2018-12-18T14:56:39.342Z,1.99
2018-12-18T14:59:09.585Z,1.97
2018-12-18T15:01:39.176Z,2.02
2018-12-18T15:04:09.295Z,1.94
2018-12-18T15:06:39.097Z,1.90
2018-12-18T15:09:09.175Z,1.86
2018-12-18T15:11:38.911Z,1.82
2018-12-18T15:14:08.775Z,1.87
2018-12-18T15:16:38.842Z,1.83
2018-12-18T15:19:08.354Z,1.79
2018-12-18T15:21:38.285Z,1.79
2018-12-18T15:24:08.113Z,1.78
2018-12-18T15:26:37.863Z,1.72
2018-12-18T15:29:07.766Z,1.71
2018-12-18T15:31:37.714Z,1.73
2018-12-18T15:34:07.408Z,1.69
2018-12-18T15:36:37.391Z,1.70
2018-12-18T15:39:08.387Z,1.69
2018-12-18T15:41:38.038Z,1.74
2018-12-18T15:44:08.047Z,1.74
2018-12-18T15:46:37.813Z,1.71
2018-12-18T15:49:07.461Z,1.70
2018-12-18T15:51:37.132Z,1.71
2018-12-18T15:54:06.987Z,1.66
2018-12-18T15:56:36.659Z,1.63
2018-12-18T15:59:06.967Z,1.58
2018-12-18T16:01:36.782Z,1.62
2018-12-18T16:04:21.514Z,1.61
2018-12-18T16:06:51.505Z,1.58
2018-12-18T16:09:21.129Z,1.56
2018-12-18T16:11:50.781Z,1.54
2018-12-18T16:14:21.682Z,1.51
2018-12-18T16:16:51.485Z,1.48
2018-12-18T16:19:22.200Z,1.48
2018-12-18T16:21:52.181Z,1.54
2018-12-18T16:24:22.008Z,1.51
2018-12-18T16:26:51.984Z,1.53
2018-12-18T16:29:21.916Z,1.53
2018-12-18T16:31:51.811Z,1.47
2018-12-18T16:34:21.655Z,1.46
2018-12-18T16:36:51.332Z,1.48
2018-12-18T16:39:21.015Z,1.53
2018-12-18T16:41:50.881Z,1.50
2018-12-18T16:44:20.750Z,1.47
2018-12-18T16:46:50.678Z,1.44
2018-12-18T16:49:20.326Z,1.45
2018-12-18T16:51:50.130Z,1.45
2018-12-18T16:54:20.159Z,1.42
2018-12-18T16:56:49.911Z,1.45
2018-12-18T16:59:19.648Z,1.45
2018-12-18T17:01:49.539Z,1.41
2018-12-18T17:04:19.331Z,1.38
2018-12-18T17:06:50.048Z,1.38
2018-12-18T17:09:19.945Z,1.38
2018-12-18T17:11:49.673Z,1.40
2018-12-18T17:14:19.412Z,1.46
2018-12-18T17:16:49.298Z,1.70
2018-12-18T17:19:18.997Z,1.94
2018-12-18T17:21:49.005Z,1.95
2018-12-18T17:24:18.869Z,1.99
2018-12-18T17:26:49.333Z,1.66
2018-12-18T17:29:19.125Z,1.54
2018-12-18T17:31:48.957Z,1.46
2018-12-18T17:34:18.788Z,1.39
2018-12-18T17:36:48.773Z,1.39
2018-12-18T17:39:18.476Z,1.37
2018-12-18T17:41:48.284Z,1.30
2018-12-18T17:44:17.858Z,1.25
2018-12-18T17:46:47.914Z,1.23
2018-12-18T17:49:17.716Z,1.17
2018-12-18T17:51:47.701Z,1.18
2018-12-18T17:54:17.751Z,1.19
2018-12-18T17:56:48.299Z,1.16
2018-12-18T17:59:18.356Z,1.15
2018-12-18T18:01:48.174Z,1.18
2018-12-18T18:04:17.735Z,1.14
2018-12-18T18:06:47.706Z,1.12
2018-12-18T18:09:17.462Z,1.12
2018-12-18T18:11:47.112Z,1.09
2018-12-18T18:14:17.184Z,1.07
2018-12-18T18:16:46.871Z,1.11
2018-12-18T18:19:16.551Z,1.10
2018-12-18T18:21:46.447Z,1.13
2018-12-18T18:24:16.337Z,1.14
2018-12-18T18:26:46.343Z,1.16
2018-12-18T18:29:16.139Z,1.15
2018-12-18T18:31:46.122Z,1.13
2018-12-18T18:34:15.820Z,1.09
2018-12-18T18:36:45.705Z,1.10
2018-12-18T18:39:15.410Z,1.10
2018-12-18T18:41:45.154Z,1.09
2018-12-18T18:44:15.114Z,1.08
2018-12-18T18:46:45.076Z,1.11
2018-12-18T18:49:16.059Z,1.10
2018-12-18T18:51:45.712Z,1.06
2018-12-18T18:54:15.426Z,1.06
2018-12-18T18:56:45.038Z,1.03
2018-12-18T18:59:14.635Z,1.05
2018-12-18T19:01:44.237Z,1.06
2018-12-18T19:04:14.211Z,1.10
2018-12-18T19:06:44.278Z,1.09
2018-12-18T19:09:13.990Z,1.08
2018-12-18T19:11:43.755Z,1.13
2018-12-18T19:14:13.572Z,1.09
2018-12-18T19:16:43.458Z,1.10
2018-12-18T19:19:13.119Z,1.13
2018-12-18T19:21:43.452Z,1.13
2018-12-18T19:24:13.238Z,1.11
2018-12-18T19:26:42.673Z,1.14
2018-12-18T19:29:12.567Z,1.16
2018-12-18T19:31:42.335Z,1.16
2018-12-18T19:34:11.967Z,1.11
2018-12-18T19:36:42.119Z,1.14
2018-12-18T19:39:12.219Z,1.14
2018-12-18T19:41:42.174Z,1.19
2018-12-18T19:44:11.994Z,1.22
2018-12-18T19:46:41.832Z,1.18
2018-12-18T19:49:11.507Z,1.22
2018-12-18T19:51:41.291Z,1.21
2018-12-18T19:54:11.746Z,1.19
2018-12-18T19:56:41.540Z,1.24
2018-12-18T19:59:11.233Z,1.21
2018-12-18T20:01:41.097Z,1.21
2018-12-18T20:04:10.692Z,1.17
2018-12-18T20:06:40.793Z,1.18
2018-12-18T20:09:10.668Z,1.23
2018-12-18T20:11:40.583Z,1.18
2018-12-18T20:14:10.160Z,1.17
2018-12-18T20:16:40.142Z,1.18
2018-12-18T20:19:09.866Z,1.20
2018-12-18T20:21:39.975Z,1.22
2018-12-18T20:24:09.915Z,1.23
2018-12-18T20:26:39.944Z,1.26
2018-12-18T20:29:09.739Z,1.28
2018-12-18T20:31:39.382Z,1.23
2018-12-18T20:34:09.267Z,1.28
2018-12-18T20:36:39.281Z,1.27
2018-12-18T20:39:10.303Z,1.28
2018-12-18T20:41:40.104Z,1.28
2018-12-18T20:44:09.883Z,1.29
2018-12-18T20:46:39.804Z,1.32
2018-12-18T20:49:11.516Z,1.28
2018-12-18T20:51:41.367Z,1.37
2018-12-18T20:54:11.049Z,1.36
2018-12-18T20:56:40.949Z,1.41
2018-12-18T20:59:10.561Z,1.45
2018-12-18T21:01:42.171Z,1.47
2018-12-18T21:04:11.986Z,1.46
2018-12-18T21:06:41.842Z,1.49
2018-12-18T21:09:11.773Z,1.47
2018-12-18T21:11:41.691Z,1.48
2018-12-18T21:14:11.446Z,1.52
2018-12-18T21:16:41.295Z,1.32
2018-12-18T21:19:11.226Z,1.50
2018-12-18T21:21:41.657Z,1.65
2018-12-18T21:24:11.355Z,1.96
2018-12-18T21:26:41.143Z,1.95
2018-12-18T21:29:11.077Z,1.87
2018-12-18T21:31:40.940Z,1.83
2018-12-18T21:34:10.659Z,1.78
2018-12-18T21:36:40.395Z,1.78
2018-12-18T21:39:10.609Z,1.70
2018-12-18T21:41:40.294Z,1.66
2018-12-18T21:44:10.281Z,1.67
2018-12-18T21:46:40.815Z,1.65
2018-12-18T21:49:10.577Z,1.70
2018-12-18T21:51:40.507Z,1.67
2018-12-18T21:54:10.352Z,1.66
2018-12-18T21:56:40.495Z,1.68
2018-12-18T21:59:10.150Z,1.62
2018-12-18T22:01:40.795Z,1.65
2018-12-18T22:04:10.419Z,1.65
2018-12-18T22:06:40.193Z,1.76
2018-12-18T22:09:10.107Z,1.83
2018-12-18T22:11:39.978Z,1.81
2018-12-18T22:14:09.844Z,1.78
2018-12-18T22:16:39.762Z,1.82
2018-12-18T22:19:09.537Z,1.81
2018-12-18T22:21:39.866Z,1.88
2018-12-18T22:24:09.487Z,2.01
2018-12-18T22:26:39.450Z,2.05
2018-12-18T22:29:09.078Z,2.21
2018-12-18T22:31:38.762Z,2.31
2018-12-18T22:34:08.518Z,2.33
2018-12-18T22:36:38.509Z,2.21
2018-12-18T22:39:08.335Z,2.05
2018-12-18T22:41:38.302Z,1.93
2018-12-18T22:44:08.065Z,1.99
2018-12-18T22:46:37.906Z,1.96
2018-12-18T22:49:07.786Z,1.94
2018-12-18T22:51:37.826Z,1.85
2018-12-18T22:54:07.621Z,1.88
2018-12-18T22:56:37.427Z,1.83
2018-12-18T22:59:07.022Z,1.78
2018-12-18T23:01:39.038Z,1.81
2018-12-18T23:04:08.971Z,1.77
2018-12-18T23:06:38.532Z,1.75
2018-12-18T23:09:13.753Z,1.76
2018-12-18T23:11:43.578Z,1.83
2018-12-18T23:14:14.537Z,1.78
2018-12-18T23:16:44.214Z,1.78
2018-12-18T23:19:14.044Z,1.77
2018-12-18T23:21:43.683Z,1.74
2018-12-18T23:24:13.477Z,1.77
2018-12-18T23:26:43.250Z,1.75
2018-12-18T23:29:12.897Z,1.71
2018-12-18T23:31:42.550Z,1.72
2018-12-18T23:34:12.111Z,1.73
2018-12-18T23:36:41.907Z,1.73
2018-12-18T23:39:11.632Z,1.77
2018-12-18T23:41:41.354Z,1.66
2018-12-18T23:44:11.395Z,1.55
2018-12-18T23:46:41.031Z,1.53
2018-12-18T23:49:10.519Z,1.52
2018-12-18T23:51:40.150Z,1.62
2018-12-18T23:54:09.800Z,1.56
2018-12-18T23:56:39.409Z,1.44
2018-12-18T23:59:09.105Z,1.41
